Terminal Aerodrome Forecast
Issued by NWS

Home | Current Version | Previous Version | Text Only | Print | Product List | Glossary On
Versions: 1 2 3 4 5 6 7 8 9 10 11 12 13 14 15 16 17
000
FTUS42 KMLB 231450 AAA
TAFSFB
TAF AMD
KSFB 231450Z 2315/2412 07004KT P6SM BKN025
     FM231800 08008KT P6SM VCSH SCT040 BKN250
      TEMPO 2318/2320 3SM TSRA BKN030CB
     FM240000 12005KT P6SM FEW030 SCT080 BKN250
     FM240600 15003KT P6SM FEW020 BKN250=

USA.gov is the U.S. government's official web portal to all federal, state and local government web resources and services.